createdAt,value
2023-04-17T00:01:55.734Z,100582.22
2023-04-17T00:04:23.473Z,100581.41
2023-04-17T00:06:53.940Z,100575.06
2023-04-17T00:09:21.395Z,100570.81
2023-04-17T00:11:48.890Z,100568.41
2023-04-17T00:14:16.383Z,100573.69
2023-04-17T00:16:43.894Z,100583.25
2023-04-17T00:19:11.938Z,100578.91
2023-04-17T00:21:39.606Z,100576.91
2023-04-17T00:24:07.351Z,100574.44
2023-04-17T00:26:34.836Z,100566.09
2023-04-17T00:29:02.828Z,100578.69
2023-04-17T00:31:31.466Z,100572.66
2023-04-17T00:34:01.366Z,100571.88
2023-04-17T00:36:31.828Z,100553.38
2023-04-17T00:38:59.349Z,100561.25
2023-04-17T00:41:26.905Z,100557.59
2023-04-17T00:43:54.360Z,100574.09
2023-04-17T00:46:22.135Z,100563.94
2023-04-17T00:48:49.738Z,100560.41
2023-04-17T00:51:17.308Z,100555.34
2023-04-17T00:53:45.850Z,100546.03
2023-04-17T00:56:13.681Z,100553.28
2023-04-17T00:58:41.371Z,100568.91
2023-04-17T01:01:08.811Z,100564.13
2023-04-17T01:03:36.559Z,100555.75
2023-04-17T01:06:04.202Z,100558.19
2023-04-17T01:08:42.151Z,100550.38
2023-04-17T01:11:10.816Z,100565.09
2023-04-17T01:13:48.729Z,100542.22
2023-04-17T01:16:18.142Z,100548.81
2023-04-17T01:18:48.343Z,100551.91
2023-04-17T01:21:16.092Z,100549.00
2023-04-17T01:23:50.000Z,100534.72
2023-04-17T01:26:18.876Z,100547.09
2023-04-17T01:28:57.798Z,100541.16
2023-04-17T01:31:27.112Z,100530.56
2023-04-17T01:33:55.449Z,100539.06
2023-04-17T01:36:22.903Z,100545.25
2023-04-17T01:38:50.337Z,100551.66
2023-04-17T01:41:17.929Z,100560.25
2023-04-17T01:43:47.473Z,100554.34
2023-04-17T01:46:15.107Z,100543.28
2023-04-17T01:48:42.650Z,100567.13
2023-04-17T01:51:10.172Z,100552.50
2023-04-17T01:53:40.204Z,100543.66
2023-04-17T01:56:07.815Z,100547.09
2023-04-17T01:58:35.549Z,100547.28
2023-04-17T02:01:02.963Z,100553.28
2023-04-17T02:03:31.492Z,100563.72
2023-04-17T02:05:59.134Z,100550.50
2023-04-17T02:08:27.212Z,100545.13
2023-04-17T02:10:54.616Z,100568.09
2023-04-17T02:13:22.093Z,100544.94
2023-04-17T02:15:49.574Z,100557.41
2023-04-17T02:18:17.152Z,100550.38
2023-04-17T02:20:44.589Z,100555.72
2023-04-17T02:23:12.320Z,100551.41
2023-04-17T02:25:39.733Z,100531.38
2023-04-17T02:28:07.248Z,100549.94
2023-04-17T02:30:35.179Z,100536.47
2023-04-17T02:33:02.716Z,100546.91
2023-04-17T02:35:32.489Z,100550.50
2023-04-17T02:38:00.230Z,100545.91
2023-04-17T02:40:28.324Z,100537.34
2023-04-17T02:43:01.725Z,100529.56
2023-04-17T02:45:30.722Z,100548.66
2023-04-17T02:47:58.315Z,100543.59
2023-04-17T02:50:25.849Z,100545.09
2023-04-17T02:53:07.688Z,100550.78
2023-04-17T02:55:36.056Z,100550.47
2023-04-17T02:58:03.474Z,100548.53
2023-04-17T03:00:30.860Z,100548.25
2023-04-17T03:02:59.744Z,100550.09
2023-04-17T03:05:30.633Z,100547.13
2023-04-17T03:08:00.360Z,100542.22
2023-04-17T03:10:32.257Z,100553.50
2023-04-17T03:12:59.677Z,100560.59
2023-04-17T03:15:27.220Z,100558.47
2023-04-17T03:17:54.681Z,100545.34
2023-04-17T03:20:22.200Z,100555.75
2023-04-17T03:22:49.669Z,100556.75
2023-04-17T03:25:17.108Z,100550.63
2023-04-17T03:27:49.776Z,100546.31
2023-04-17T03:30:19.404Z,100542.50
2023-04-17T03:32:49.701Z,100547.13
2023-04-17T03:35:17.136Z,100541.06
2023-04-17T03:37:44.679Z,100550.09
2023-04-17T03:40:13.849Z,100548.69
2023-04-17T03:42:44.274Z,100547.78
2023-04-17T03:45:12.138Z,100551.00
2023-04-17T03:47:39.628Z,100537.56
2023-04-17T03:50:08.067Z,100539.84
2023-04-17T03:52:40.423Z,100544.44
2023-04-17T03:55:08.453Z,100555.94
2023-04-17T03:57:35.994Z,100541.25
2023-04-17T04:00:07.754Z,100543.97
2023-04-17T04:02:46.711Z,100544.09
2023-04-17T04:05:18.110Z,100540.47
2023-04-17T04:07:45.777Z,100537.28
2023-04-17T04:10:18.933Z,100538.53
2023-04-17T04:12:46.299Z,100537.56
2023-04-17T04:15:15.075Z,100547.47
2023-04-17T04:17:44.353Z,100557.69
2023-04-17T04:20:12.180Z,100532.28
2023-04-17T04:22:41.653Z,100547.53
2023-04-17T04:25:09.318Z,100562.81
2023-04-17T04:27:49.716Z,100551.28
2023-04-17T04:30:25.470Z,100540.19
2023-04-17T04:32:57.112Z,100560.97
2023-04-17T04:35:30.317Z,100547.25
2023-04-17T04:38:02.269Z,100555.81
2023-04-17T04:40:38.241Z,100545.53
2023-04-17T04:43:07.638Z,100565.66
2023-04-17T04:45:44.428Z,100557.75
2023-04-17T04:48:11.782Z,100550.56
2023-04-17T04:50:39.239Z,100551.50
2023-04-17T04:53:06.724Z,100555.66
2023-04-17T04:55:45.826Z,100545.28
2023-04-17T04:58:13.436Z,100530.28
2023-04-17T05:00:41.306Z,100548.81
2023-04-17T05:03:12.994Z,100545.34
2023-04-17T05:05:41.881Z,100564.25
2023-04-17T05:08:12.165Z,100557.44
2023-04-17T05:10:40.077Z,100574.94
2023-04-17T05:13:08.553Z,100569.63
2023-04-17T05:15:36.016Z,100575.75
2023-04-17T05:18:03.958Z,100581.56
2023-04-17T05:20:34.067Z,100581.28
2023-04-17T05:23:01.661Z,100582.84
2023-04-17T05:25:29.216Z,100584.31
2023-04-17T05:27:58.378Z,100593.09
2023-04-17T05:30:25.927Z,100585.88
2023-04-17T05:33:04.869Z,100584.88
2023-04-17T05:35:46.539Z,100585.75
2023-04-17T05:38:14.226Z,100579.59
2023-04-17T05:40:41.637Z,100580.91
2023-04-17T05:43:10.756Z,100576.56
2023-04-17T05:45:41.353Z,100566.94
2023-04-17T05:48:10.140Z,100582.56
2023-04-17T05:50:37.781Z,100578.88
2023-04-17T05:53:06.779Z,100570.97
2023-04-17T05:55:39.622Z,100589.53
2023-04-17T06:00:45.212Z,100582.91
2023-04-17T06:03:18.328Z,100594.22
2023-04-17T06:05:47.234Z,100599.22
2023-04-17T06:08:14.731Z,100609.66
2023-04-17T06:10:42.241Z,100613.22
2023-04-17T06:13:09.907Z,100599.78
2023-04-17T06:15:37.362Z,100605.72
2023-04-17T06:18:05.106Z,100601.53
2023-04-17T06:20:32.532Z,100629.88
2023-04-17T06:23:03.228Z,100597.84
2023-04-17T06:25:30.625Z,100616.13
2023-04-17T06:27:58.161Z,100622.31
2023-04-17T06:30:25.600Z,100622.38
2023-04-17T06:32:55.144Z,100610.19
2023-04-17T06:35:22.720Z,100610.63
2023-04-17T06:37:55.613Z,100622.56
2023-04-17T06:40:23.404Z,100612.41
2023-04-17T06:42:52.160Z,100619.00
2023-04-17T06:45:21.594Z,100612.19
2023-04-17T06:47:49.021Z,100603.22
2023-04-17T06:50:20.674Z,100617.69
2023-04-17T06:52:48.084Z,100608.50
2023-04-17T06:55:15.645Z,100626.81
2023-04-17T06:57:43.109Z,100623.81
2023-04-17T07:00:11.295Z,100617.44
2023-04-17T07:02:38.806Z,100622.38
2023-04-17T07:05:07.245Z,100640.84
2023-04-17T07:07:36.066Z,100641.66
2023-04-17T07:10:04.339Z,100630.00
2023-04-17T07:12:31.921Z,100641.38
2023-04-17T07:14:59.642Z,100630.50
2023-04-17T07:17:27.555Z,100646.09
2023-04-17T07:19:55.140Z,100622.63
2023-04-17T07:22:23.928Z,100635.31
2023-04-17T07:24:52.240Z,100637.81
2023-04-17T07:27:19.634Z,100642.91
2023-04-17T07:29:52.890Z,100640.00
2023-04-17T07:32:21.724Z,100641.47
2023-04-17T07:34:49.123Z,100642.22
2023-04-17T07:37:16.700Z,100648.81
2023-04-17T07:39:44.902Z,100645.19
2023-04-17T07:42:12.263Z,100640.66
2023-04-17T07:44:39.576Z,100654.28
2023-04-17T07:47:07.069Z,100635.50
2023-04-17T07:49:35.229Z,100652.00
2023-04-17T07:52:02.775Z,100653.25
2023-04-17T07:54:31.325Z,100664.47
2023-04-17T07:57:02.993Z,100660.00
2023-04-17T07:59:30.714Z,100664.28
2023-04-17T08:01:58.391Z,100672.75
2023-04-17T08:04:26.342Z,100667.09
2023-04-17T08:06:53.842Z,100679.34
2023-04-17T08:09:22.234Z,100665.97
2023-04-17T08:11:57.051Z,100680.59
2023-04-17T08:14:25.699Z,100681.38
2023-04-17T08:16:53.275Z,100683.19
2023-04-17T08:19:20.710Z,100679.66
2023-04-17T08:21:48.838Z,100671.53
2023-04-17T08:24:19.523Z,100670.97
2023-04-17T08:26:47.972Z,100674.09
2023-04-17T08:29:15.860Z,100671.91
2023-04-17T08:31:43.551Z,100674.34
2023-04-17T08:34:14.788Z,100687.53
2023-04-17T08:36:43.317Z,100679.47
2023-04-17T08:39:12.598Z,100687.66
2023-04-17T08:41:49.184Z,100681.50
2023-04-17T08:44:20.842Z,100687.91
2023-04-17T08:46:48.936Z,100697.31
2023-04-17T08:49:16.446Z,100680.72
2023-04-17T08:51:43.961Z,100690.16
2023-04-17T08:54:11.386Z,100683.84
2023-04-17T08:56:38.788Z,100678.59
2023-04-17T08:59:06.269Z,100697.31
2023-04-17T09:01:34.943Z,100687.75
2023-04-17T09:04:02.711Z,100681.72
2023-04-17T09:06:49.515Z,100688.75
2023-04-17T09:09:17.503Z,100669.00
2023-04-17T09:11:44.859Z,100688.53
2023-04-17T09:14:30.741Z,100681.44
2023-04-17T09:16:58.152Z,100669.47
2023-04-17T09:19:25.938Z,100666.09
2023-04-17T09:21:54.645Z,100668.22
2023-04-17T09:24:35.541Z,100678.81
2023-04-17T09:27:23.601Z,100679.69
2023-04-17T09:30:05.070Z,100665.06
2023-04-17T09:32:34.357Z,100678.88
2023-04-17T09:35:04.047Z,100672.28
2023-04-17T09:37:52.472Z,100668.66
2023-04-17T09:40:22.189Z,100669.47
2023-04-17T09:43:01.307Z,100660.34
2023-04-17T09:45:35.773Z,100658.38
2023-04-17T09:48:10.862Z,100663.41
2023-04-17T09:50:39.487Z,100661.50
2023-04-17T09:53:08.321Z,100675.69
2023-04-17T09:55:38.067Z,100661.88
2023-04-17T09:58:07.558Z,100675.16
2023-04-17T10:00:36.622Z,100664.69
2023-04-17T10:03:05.068Z,100655.41
2023-04-17T10:05:32.907Z,100664.16
2023-04-17T10:08:01.533Z,100662.19
2023-04-17T10:10:32.431Z,100663.00
2023-04-17T10:13:02.530Z,100655.59
2023-04-17T10:15:30.762Z,100652.31
2023-04-17T10:18:23.447Z,100658.50
2023-04-17T10:20:53.669Z,100644.66
2023-04-17T10:23:35.099Z,100637.34
2023-04-17T10:26:30.084Z,100650.28
2023-04-17T10:28:57.981Z,100644.41
2023-04-17T10:32:02.919Z,100643.53
2023-04-17T10:34:37.890Z,100634.53
2023-04-17T10:37:05.414Z,100648.56
2023-04-17T10:39:53.258Z,100646.06
2023-04-17T10:42:22.279Z,100628.78
2023-04-17T10:44:52.290Z,100639.09
2023-04-17T10:47:21.392Z,100637.56
2023-04-17T10:49:54.649Z,100631.56
2023-04-17T10:52:34.722Z,100629.19
2023-04-17T10:55:06.620Z,100633.38
2023-04-17T10:57:58.258Z,100632.59
2023-04-17T11:00:32.769Z,100628.00
2023-04-17T11:03:02.424Z,100628.03
2023-04-17T11:05:34.002Z,100617.97
2023-04-17T11:08:01.971Z,100620.97
2023-04-17T11:10:36.459Z,100607.47
2023-04-17T11:13:03.952Z,100605.00
2023-04-17T11:15:34.299Z,100614.31
2023-04-17T11:18:03.320Z,100590.72
2023-04-17T11:20:32.653Z,100591.47
2023-04-17T11:23:04.635Z,100585.19
2023-04-17T11:25:34.419Z,100598.97
2023-04-17T11:28:05.312Z,100586.81
2023-04-17T11:30:35.620Z,100587.19
2023-04-17T11:33:05.585Z,100579.63
2023-04-17T11:35:35.555Z,100586.91
2023-04-17T11:38:23.171Z,100595.03
2023-04-17T11:40:55.406Z,100589.91
2023-04-17T11:43:23.828Z,100596.97
2023-04-17T11:45:53.601Z,100583.72
2023-04-17T11:48:24.484Z,100598.97
2023-04-17T11:50:57.353Z,100597.16
2023-04-17T11:53:25.153Z,100596.25
2023-04-17T11:56:11.254Z,100600.63
2023-04-17T11:58:49.530Z,100581.25
2023-04-17T12:01:18.411Z,100590.41
2023-04-17T12:03:48.007Z,100598.50
2023-04-17T12:06:16.386Z,100601.75
2023-04-17T12:08:47.246Z,100601.19
2023-04-17T12:11:18.124Z,100600.00
2023-04-17T12:13:45.531Z,100598.53
2023-04-17T12:16:13.092Z,100597.63
2023-04-17T12:18:40.551Z,100602.91
2023-04-17T12:21:07.957Z,100583.72
2023-04-17T12:23:35.440Z,100600.78
2023-04-17T12:26:03.160Z,100594.63
2023-04-17T12:28:31.189Z,100598.19
2023-04-17T12:30:58.692Z,100604.25
2023-04-17T12:33:26.342Z,100580.25
2023-04-17T12:35:54.267Z,100592.84
2023-04-17T12:38:23.264Z,100590.00
2023-04-17T12:40:50.632Z,100578.44
2023-04-17T12:43:18.200Z,100589.81
2023-04-17T12:45:46.275Z,100585.47
2023-04-17T12:48:14.853Z,100573.03
2023-04-17T12:50:43.656Z,100584.03
2023-04-17T12:53:13.624Z,100588.44
2023-04-17T12:55:43.693Z,100580.25
2023-04-17T12:58:13.137Z,100583.72
2023-04-17T13:00:44.336Z,100584.50
2023-04-17T13:03:12.405Z,100580.75
2023-04-17T13:05:40.088Z,100584.16
2023-04-17T13:08:33.144Z,100580.69
2023-04-17T13:11:03.720Z,100577.34
2023-04-17T13:13:31.135Z,100575.75
2023-04-17T13:15:58.836Z,100566.91
2023-04-17T13:18:26.493Z,100559.50
2023-04-17T13:20:53.860Z,100574.03
2023-04-17T13:23:21.254Z,100569.63
2023-04-17T13:25:48.655Z,100562.63
2023-04-17T13:28:16.013Z,100545.50
2023-04-17T13:30:43.446Z,100554.75
2023-04-17T13:33:10.980Z,100549.72
2023-04-17T13:35:38.431Z,100554.31
2023-04-17T13:38:06.473Z,100544.13
2023-04-17T13:40:33.842Z,100548.81
2023-04-17T13:43:01.517Z,100547.00
2023-04-17T13:45:29.947Z,100537.38
2023-04-17T13:47:57.433Z,100525.16
2023-04-17T13:50:25.007Z,100533.50
2023-04-17T13:52:52.500Z,100525.72
2023-04-17T13:55:19.964Z,100536.91
2023-04-17T13:57:47.413Z,100517.22
2023-04-17T14:00:15.278Z,100528.69
2023-04-17T14:02:43.060Z,100528.09
2023-04-17T14:05:10.590Z,100528.75
2023-04-17T14:07:38.341Z,100533.41
2023-04-17T14:10:06.720Z,100539.19
2023-04-17T14:12:34.172Z,100531.06
2023-04-17T14:15:01.594Z,100517.94
2023-04-17T14:17:29.171Z,100540.41
2023-04-17T14:19:56.889Z,100539.22
2023-04-17T14:22:24.354Z,100535.47
2023-04-17T14:24:51.806Z,100526.81
2023-04-17T14:27:19.165Z,100534.81
2023-04-17T14:29:46.599Z,100526.97
2023-04-17T14:32:14.013Z,100509.50
2023-04-17T14:34:41.427Z,100515.84
2023-04-17T14:37:08.921Z,100517.78
2023-04-17T14:39:38.357Z,100521.16
2023-04-17T14:42:05.817Z,100524.22
2023-04-17T14:44:33.262Z,100515.28
2023-04-17T14:47:00.765Z,100497.31
2023-04-17T14:49:29.616Z,100497.75
2023-04-17T14:51:56.981Z,100503.25
2023-04-17T14:54:24.433Z,100497.28
2023-04-17T14:56:51.910Z,100490.19
2023-04-17T14:59:19.459Z,100487.75
2023-04-17T15:01:46.985Z,100487.63
2023-04-17T15:04:15.079Z,100489.66
2023-04-17T15:06:43.084Z,100503.81
2023-04-17T15:09:10.670Z,100505.06
2023-04-17T15:11:38.176Z,100504.41
2023-04-17T15:14:05.558Z,100504.75
2023-04-17T15:16:32.998Z,100511.03
2023-04-17T15:19:00.422Z,100512.94
2023-04-17T15:21:27.708Z,100514.41
2023-04-17T15:23:58.151Z,100519.91
2023-04-17T15:26:25.776Z,100521.72
2023-04-17T15:28:53.147Z,100523.47
2023-04-17T15:31:20.674Z,100519.09
2023-04-17T15:33:48.071Z,100529.97
2023-04-17T15:36:15.612Z,100515.44
2023-04-17T15:38:44.035Z,100534.78
2023-04-17T15:41:11.433Z,100516.88
2023-04-17T15:43:39.128Z,100531.78
2023-04-17T15:46:06.521Z,100522.50
2023-04-17T15:48:33.815Z,100525.19
2023-04-17T15:51:02.984Z,100524.22
2023-04-17T15:53:30.314Z,100521.72
2023-04-17T15:55:57.644Z,100514.56
2023-04-17T15:58:25.012Z,100520.94
2023-04-17T16:00:52.304Z,100526.78
2023-04-17T16:03:19.762Z,100522.34
2023-04-17T16:05:47.242Z,100510.53
2023-04-17T16:08:15.291Z,100513.22
2023-04-17T16:10:42.690Z,100506.72
2023-04-17T16:13:10.060Z,100503.25
2023-04-17T16:15:37.458Z,100511.94
2023-04-17T16:18:05.124Z,100507.09
2023-04-17T16:20:32.574Z,100516.81
2023-04-17T16:22:59.867Z,100522.38
2023-04-17T16:25:27.246Z,100511.44
2023-04-17T16:27:54.621Z,100526.66
2023-04-17T16:30:22.041Z,100532.44
2023-04-17T16:32:50.272Z,100522.72
2023-04-17T16:35:17.710Z,100535.34
2023-04-17T16:37:45.158Z,100529.28
2023-04-17T16:40:13.030Z,100526.41
2023-04-17T16:42:40.703Z,100528.06
2023-04-17T16:45:08.352Z,100535.19
2023-04-17T16:47:35.829Z,100523.03
2023-04-17T16:50:03.699Z,100544.56
2023-04-17T16:52:30.994Z,100521.91
2023-04-17T16:54:58.738Z,100535.59
2023-04-17T16:57:31.041Z,100523.31
2023-04-17T16:59:59.079Z,100526.91
2023-04-17T17:02:26.545Z,100517.72
2023-04-17T17:04:58.594Z,100520.78
2023-04-17T17:07:27.159Z,100534.72
2023-04-17T17:09:54.551Z,100528.50
2023-04-17T17:12:22.030Z,100528.91
2023-04-17T17:14:49.335Z,100532.22
2023-04-17T17:17:16.656Z,100529.00
2023-04-17T17:19:43.957Z,100529.88
2023-04-17T17:22:11.310Z,100538.13
2023-04-17T17:24:38.700Z,100535.22
2023-04-17T17:27:06.152Z,100536.31
2023-04-17T17:29:33.544Z,100540.16
2023-04-17T17:32:00.922Z,100535.88
2023-04-17T17:34:28.282Z,100533.53
2023-04-17T17:36:55.725Z,100536.31
2023-04-17T17:39:23.063Z,100538.13
2023-04-17T17:41:50.584Z,100540.97
2023-04-17T17:44:18.141Z,100536.41
2023-04-17T17:46:45.589Z,100538.72
2023-04-17T17:49:12.968Z,100538.25
2023-04-17T17:51:40.418Z,100544.28
2023-04-17T17:54:08.051Z,100535.28
2023-04-17T17:56:35.499Z,100538.47
2023-04-17T17:59:02.852Z,100542.41
2023-04-17T18:01:30.289Z,100541.63
2023-04-17T18:03:58.245Z,100544.72
2023-04-17T18:06:50.608Z,100547.56
2023-04-17T18:09:18.044Z,100546.22
2023-04-17T18:11:47.553Z,100544.31
2023-04-17T18:14:14.967Z,100542.81
2023-04-17T18:16:43.102Z,100550.38
2023-04-17T18:19:10.606Z,100548.06
2023-04-17T18:21:38.549Z,100550.97
2023-04-17T18:24:06.380Z,100551.47
2023-04-17T18:26:36.486Z,100542.91
2023-04-17T18:29:03.806Z,100549.00
2023-04-17T18:31:31.317Z,100552.88
2023-04-17T18:34:02.478Z,100553.16
2023-04-17T18:36:30.814Z,100550.31
2023-04-17T18:38:58.793Z,100559.16
2023-04-17T18:41:27.033Z,100562.72
2023-04-17T18:43:54.425Z,100570.88
2023-04-17T18:46:23.819Z,100569.06
2023-04-17T18:48:51.311Z,100567.03
2023-04-17T18:51:18.734Z,100565.22
2023-04-17T18:53:46.584Z,100571.59
2023-04-17T18:56:15.149Z,100562.97
2023-04-17T18:58:43.346Z,100557.63
2023-04-17T19:01:11.608Z,100561.97
2023-04-17T19:03:40.437Z,100568.88
2023-04-17T19:06:08.234Z,100570.97
2023-04-17T19:08:38.193Z,100566.91
2023-04-17T19:11:07.249Z,100568.13
2023-04-17T19:13:34.866Z,100580.75
2023-04-17T19:16:02.288Z,100581.34
2023-04-17T19:18:29.790Z,100578.84
2023-04-17T19:20:57.226Z,100565.00
2023-04-17T19:23:26.010Z,100567.09
2023-04-17T19:25:58.767Z,100568.88
2023-04-17T19:28:28.366Z,100565.00
2023-04-17T19:30:58.630Z,100560.66
2023-04-17T19:33:27.287Z,100581.97
2023-04-17T19:35:54.917Z,100575.97
2023-04-17T19:38:26.132Z,100567.66
2023-04-17T19:41:19.372Z,100581.59
2023-04-17T19:43:53.696Z,100576.47
2023-04-17T19:46:25.219Z,100576.63
2023-04-17T19:48:53.023Z,100555.59
2023-04-17T19:51:20.451Z,100572.28
2023-04-17T19:53:49.343Z,100557.63
2023-04-17T19:56:16.971Z,100570.63
2023-04-17T19:58:44.441Z,100566.00
2023-04-17T20:01:12.040Z,100564.38
2023-04-17T20:03:42.971Z,100573.59
2023-04-17T20:06:10.750Z,100567.50
2023-04-17T20:08:38.250Z,100565.88
2023-04-17T20:11:06.494Z,100558.41
2023-04-17T20:13:35.035Z,100567.91
2023-04-17T20:16:04.024Z,100578.34
2023-04-17T20:18:34.716Z,100569.56
2023-04-17T20:21:02.557Z,100566.50
2023-04-17T20:23:30.322Z,100570.56
2023-04-17T20:25:58.520Z,100572.97
2023-04-17T20:28:29.032Z,100568.13
2023-04-17T20:30:57.847Z,100564.97
2023-04-17T20:33:25.860Z,100556.81
2023-04-17T20:35:53.794Z,100548.28
2023-04-17T20:38:21.329Z,100573.00
2023-04-17T20:40:48.679Z,100553.09
2023-04-17T20:43:16.954Z,100578.81
2023-04-17T20:45:44.707Z,100564.94
2023-04-17T20:48:12.190Z,100564.41
2023-04-17T20:50:39.621Z,100566.59
2023-04-17T20:53:06.940Z,100563.13
2023-04-17T20:55:36.923Z,100563.13
2023-04-17T20:58:04.283Z,100565.97
2023-04-17T21:00:31.738Z,100567.81
2023-04-17T21:02:59.062Z,100561.31
2023-04-17T21:05:27.244Z,100573.53
2023-04-17T21:07:57.925Z,100565.38
2023-04-17T21:10:25.661Z,100567.69
2023-04-17T21:12:53.349Z,100557.22
2023-04-17T21:15:21.079Z,100562.41
2023-04-17T21:17:48.587Z,100561.25
2023-04-17T21:20:16.116Z,100565.72
2023-04-17T21:22:43.509Z,100575.00
2023-04-17T21:25:11.429Z,100555.66
2023-04-17T21:27:39.675Z,100573.03
2023-04-17T21:30:08.341Z,100570.22
2023-04-17T21:32:35.864Z,100571.78
2023-04-17T21:35:03.468Z,100569.25
2023-04-17T21:37:30.995Z,100557.63
2023-04-17T21:39:58.560Z,100568.47
2023-04-17T21:42:26.194Z,100569.97
2023-04-17T21:44:53.691Z,100556.66
2023-04-17T21:47:21.246Z,100548.16
2023-04-17T21:49:49.327Z,100559.69
2023-04-17T21:52:17.063Z,100561.44
2023-04-17T21:54:44.596Z,100560.06
2023-04-17T21:58:08.319Z,100574.97
2023-04-17T22:00:54.717Z,100562.41
2023-04-17T22:03:23.061Z,100566.72
2023-04-17T22:05:53.320Z,100558.19
2023-04-17T22:08:21.025Z,100568.16
2023-04-17T22:10:48.597Z,100570.56
2023-04-17T22:13:16.160Z,100551.09
2023-04-17T22:15:44.575Z,100569.03
2023-04-17T22:18:12.154Z,100570.03
2023-04-17T22:20:39.695Z,100556.72
2023-04-17T22:23:07.399Z,100554.41
2023-04-17T22:25:34.950Z,100568.94
2023-04-17T22:28:02.510Z,100572.03
2023-04-17T22:30:30.084Z,100539.72
2023-04-17T22:32:57.713Z,100561.56
2023-04-17T22:35:25.435Z,100565.22
2023-04-17T22:37:52.976Z,100570.75
2023-04-17T22:40:20.689Z,100567.13
2023-04-17T22:42:50.540Z,100559.44
2023-04-17T22:45:18.292Z,100549.00
2023-04-17T22:47:45.897Z,100561.09
2023-04-17T22:50:14.319Z,100562.13
2023-04-17T22:52:41.976Z,100568.72
2023-04-17T22:55:09.897Z,100565.09
2023-04-17T22:57:37.525Z,100571.19
2023-04-17T23:00:07.546Z,100561.56
2023-04-17T23:02:35.987Z,100577.53
2023-04-17T23:05:03.702Z,100573.25
2023-04-17T23:07:31.522Z,100575.78
2023-04-17T23:09:59.166Z,100572.78
2023-04-17T23:12:26.776Z,100583.28
2023-04-17T23:14:54.324Z,100576.34
2023-04-17T23:17:21.823Z,100580.34
2023-04-17T23:19:49.441Z,100581.22
2023-04-17T23:22:17.078Z,100585.41
2023-04-17T23:24:44.680Z,100579.81
2023-04-17T23:27:12.240Z,100588.59
2023-04-17T23:29:39.733Z,100583.69
2023-04-17T23:32:07.679Z,100584.25
2023-04-17T23:34:35.973Z,100573.44
2023-04-17T23:37:03.722Z,100563.03
2023-04-17T23:39:31.280Z,100581.19
2023-04-17T23:42:00.542Z,100576.78
2023-04-17T23:44:28.112Z,100588.00
2023-04-17T23:46:56.075Z,100595.63
2023-04-17T23:49:23.694Z,100595.53
2023-04-17T23:51:51.205Z,100587.59
2023-04-17T23:54:18.775Z,100570.44
2023-04-17T23:56:46.360Z,100583.75
2023-04-17T23:59:13.921Z,100564.34
